createdAt,value
2024-03-12T00:00:16.714Z,27.83
2024-03-12T00:02:45.706Z,29.88
2024-03-12T00:05:16.775Z,30.65
2024-03-12T00:07:44.078Z,25.83
2024-03-12T00:10:16.168Z,29.63
2024-03-12T00:12:48.776Z,27.63
2024-03-12T00:15:19.243Z,27.00
2024-03-12T00:17:46.000Z,26.65
2024-03-12T00:20:19.604Z,28.85
2024-03-12T00:22:48.384Z,29.88
2024-03-12T00:27:43.204Z,28.85
2024-03-12T00:30:10.839Z,29.15
2024-03-12T00:32:40.379Z,30.05
2024-03-12T00:35:07.881Z,27.20
2024-03-12T00:37:34.529Z,30.58
2024-03-12T00:40:01.168Z,28.38
2024-03-12T00:42:27.806Z,29.80
2024-03-12T00:44:54.293Z,28.40
2024-03-12T00:47:23.198Z,26.55
2024-03-12T00:49:51.840Z,30.05
2024-03-12T00:52:18.939Z,30.98
2024-03-12T00:54:47.061Z,34.47
2024-03-12T00:57:14.484Z,30.42
2024-03-12T00:59:42.218Z,31.27
2024-03-12T01:02:11.491Z,31.90
2024-03-12T01:04:41.301Z,31.52
2024-03-12T01:07:12.041Z,33.25
2024-03-12T01:09:40.618Z,28.75
2024-03-12T01:12:10.373Z,29.40
2024-03-12T01:14:38.130Z,30.13
2024-03-12T01:17:07.904Z,27.98
2024-03-12T01:19:37.640Z,33.05
2024-03-12T01:22:06.969Z,33.05
2024-03-12T01:24:35.038Z,35.10
2024-03-12T01:27:02.070Z,31.25
2024-03-12T01:29:28.718Z,31.33
2024-03-12T01:31:56.257Z,30.52
2024-03-12T01:34:23.752Z,30.15
2024-03-12T01:36:50.738Z,30.40
2024-03-12T01:39:17.630Z,28.40
2024-03-12T01:41:45.873Z,31.80
2024-03-12T01:44:12.825Z,29.85
2024-03-12T01:46:39.390Z,30.50
2024-03-12T01:49:06.350Z,31.20
2024-03-12T01:51:33.165Z,28.90
2024-03-12T01:53:59.671Z,29.10
2024-03-12T01:56:26.155Z,31.55
2024-03-12T01:58:52.755Z,28.67
2024-03-12T02:01:22.365Z,26.92
2024-03-12T02:03:49.807Z,31.63
2024-03-12T02:06:16.346Z,28.67
2024-03-12T02:08:42.808Z,30.25
2024-03-12T02:11:09.629Z,34.22
2024-03-12T02:13:36.555Z,29.48
2024-03-12T02:16:03.305Z,28.23
2024-03-12T02:18:29.888Z,29.85
2024-03-12T02:20:56.382Z,32.13
2024-03-12T02:23:34.902Z,34.55
2024-03-12T02:26:01.349Z,32.00
2024-03-12T02:28:27.792Z,30.88
2024-03-12T02:30:54.364Z,33.78
2024-03-12T02:33:21.472Z,36.55
2024-03-12T02:35:47.931Z,32.47
2024-03-12T02:38:14.391Z,35.35
2024-03-12T02:40:40.881Z,35.40
2024-03-12T02:43:07.471Z,33.58
2024-03-12T02:45:34.792Z,37.60
2024-03-12T02:48:01.340Z,38.22
2024-03-12T02:50:30.792Z,34.55
2024-03-12T02:52:57.275Z,37.75
2024-03-12T02:55:24.058Z,37.17
2024-03-12T02:57:50.558Z,37.08
2024-03-12T03:00:18.388Z,36.22
2024-03-12T03:02:45.532Z,37.50
2024-03-12T03:05:13.159Z,37.92
2024-03-12T03:07:41.422Z,38.88
2024-03-12T03:10:08.207Z,39.78
2024-03-12T03:12:34.743Z,42.55
2024-03-12T03:15:01.284Z,42.15
2024-03-12T03:17:27.739Z,49.60
2024-03-12T03:19:54.296Z,39.58
2024-03-12T03:22:20.808Z,39.63
2024-03-12T03:24:47.609Z,37.65
2024-03-12T03:27:14.249Z,40.63
2024-03-12T03:29:40.716Z,45.90
2024-03-12T03:32:08.002Z,43.88
2024-03-12T03:34:34.537Z,44.50
2024-03-12T03:37:01.102Z,41.90
2024-03-12T03:39:27.839Z,44.35
2024-03-12T03:41:56.223Z,41.40
2024-03-12T03:44:23.512Z,50.63
2024-03-12T03:46:50.202Z,51.83
2024-03-12T03:49:16.718Z,48.10
2024-03-12T03:51:43.389Z,43.63
2024-03-12T03:54:10.465Z,47.60
2024-03-12T03:56:36.954Z,49.92
2024-03-12T03:59:06.322Z,52.50
2024-03-12T04:01:32.955Z,53.85
2024-03-12T04:03:59.718Z,54.53
2024-03-12T04:06:26.649Z,49.75
2024-03-12T04:08:55.907Z,53.33
2024-03-12T04:11:22.441Z,54.97
2024-03-12T04:13:48.947Z,50.78
2024-03-12T04:16:16.182Z,56.25
2024-03-12T04:18:45.596Z,53.58
2024-03-12T04:21:14.959Z,48.25
2024-03-12T04:23:43.655Z,56.13
2024-03-12T04:26:10.212Z,50.08
2024-03-12T04:28:39.910Z,54.35
2024-03-12T04:31:09.352Z,48.80
2024-03-12T04:33:35.888Z,52.45
2024-03-12T04:36:02.393Z,59.08
2024-03-12T04:38:31.328Z,53.28
2024-03-12T04:40:57.803Z,47.83
2024-03-12T04:43:24.240Z,51.80
2024-03-12T04:45:50.714Z,51.05
2024-03-12T04:48:17.190Z,50.13
2024-03-12T04:50:43.749Z,49.28
2024-03-12T04:53:10.429Z,56.42
2024-03-12T04:55:40.203Z,55.97
2024-03-12T04:58:06.954Z,47.80
2024-03-12T05:00:33.632Z,53.63
2024-03-12T05:03:01.232Z,49.47
2024-03-12T05:05:27.722Z,50.65
2024-03-12T05:07:54.174Z,47.47
2024-03-12T05:10:25.388Z,46.20
2024-03-12T05:12:52.540Z,51.42
2024-03-12T05:15:19.176Z,58.00
2024-03-12T05:17:49.641Z,48.35
2024-03-12T05:20:18.493Z,45.88
2024-03-12T05:22:47.031Z,51.05
2024-03-12T05:25:37.118Z,53.55
2024-03-12T05:28:05.803Z,48.50
2024-03-12T05:30:32.320Z,53.17
2024-03-12T05:33:05.159Z,50.03
2024-03-12T05:35:33.009Z,52.80
2024-03-12T05:38:13.013Z,54.67
2024-03-12T05:40:42.494Z,57.13
2024-03-12T05:43:27.733Z,55.90
2024-03-12T05:46:12.993Z,51.50
2024-03-12T05:48:40.204Z,62.85
2024-03-12T05:51:08.541Z,57.75
2024-03-12T05:53:38.525Z,65.63
2024-03-12T05:56:08.568Z,62.30
2024-03-12T05:58:35.304Z,60.50
2024-03-12T06:01:03.604Z,64.57
2024-03-12T06:03:30.503Z,65.88
2024-03-12T06:05:57.388Z,57.88
2024-03-12T06:08:25.734Z,63.95
2024-03-12T06:10:54.985Z,65.20
2024-03-12T06:13:23.582Z,70.43
2024-03-12T06:15:51.007Z,63.65
2024-03-12T06:18:19.426Z,66.35
2024-03-12T06:20:50.286Z,61.53
2024-03-12T06:23:23.488Z,60.65
2024-03-12T06:25:50.431Z,57.33
2024-03-12T06:28:17.464Z,68.95
2024-03-12T06:30:44.575Z,64.72
2024-03-12T06:33:13.162Z,67.53
2024-03-12T06:35:41.128Z,64.40
2024-03-12T06:38:07.669Z,69.32
2024-03-12T06:40:34.310Z,64.30
2024-03-12T06:43:00.836Z,65.68
2024-03-12T06:45:28.364Z,72.85
2024-03-12T06:47:57.036Z,74.72
2024-03-12T06:50:26.940Z,73.15
2024-03-12T06:52:54.226Z,71.93
2024-03-12T06:55:24.780Z,70.47
2024-03-12T06:58:00.801Z,71.65
2024-03-12T07:00:37.943Z,65.65
2024-03-12T07:03:05.746Z,66.93
2024-03-12T07:05:37.170Z,66.00
2024-03-12T07:08:06.986Z,65.05
2024-03-12T07:10:34.703Z,69.97
2024-03-12T07:13:03.362Z,66.75
2024-03-12T07:15:32.585Z,63.65
2024-03-12T07:17:59.675Z,69.45
2024-03-12T07:20:29.046Z,71.30
2024-03-12T07:22:58.053Z,74.07
2024-03-12T07:25:24.492Z,68.60
2024-03-12T07:27:51.253Z,75.95
2024-03-12T07:30:17.746Z,63.17
2024-03-12T07:32:44.226Z,65.28
2024-03-12T07:35:10.918Z,74.47
2024-03-12T07:37:40.731Z,41.03
2024-03-12T07:40:13.186Z,80.25
2024-03-12T07:42:42.725Z,72.75
2024-03-12T07:45:15.596Z,76.25
2024-03-12T07:47:42.243Z,71.88
2024-03-12T07:50:14.938Z,68.32
2024-03-12T07:52:41.413Z,74.93
2024-03-12T07:55:08.268Z,79.82
2024-03-12T07:57:36.455Z,75.30
2024-03-12T08:00:07.031Z,68.65
2024-03-12T08:02:33.484Z,78.68
2024-03-12T08:05:00.001Z,79.40
2024-03-12T08:07:26.506Z,75.53
2024-03-12T08:09:53.653Z,71.97
2024-03-12T08:12:20.805Z,77.28
2024-03-12T08:14:47.532Z,84.47
2024-03-12T08:17:14.063Z,90.80
2024-03-12T08:19:41.948Z,77.05
2024-03-12T08:22:09.653Z,80.22
2024-03-12T08:24:38.326Z,81.35
2024-03-12T08:27:05.952Z,83.00
2024-03-12T08:29:32.756Z,90.97
2024-03-12T08:32:00.788Z,86.68
2024-03-12T08:34:28.349Z,88.38
2024-03-12T08:36:56.489Z,77.03
2024-03-12T08:39:23.378Z,93.47
2024-03-12T08:41:50.264Z,80.22
2024-03-12T08:44:16.743Z,88.10
2024-03-12T08:46:43.348Z,82.57
2024-03-12T08:49:12.130Z,85.25
2024-03-12T08:51:40.639Z,86.05
2024-03-12T08:54:07.732Z,96.13
2024-03-12T08:56:36.617Z,86.43
2024-03-12T08:59:04.207Z,98.13
2024-03-12T09:01:31.716Z,89.90
2024-03-12T09:03:58.838Z,89.93
2024-03-12T09:06:25.412Z,82.95
2024-03-12T09:08:51.889Z,109.75
2024-03-12T09:11:18.934Z,89.03
2024-03-12T09:13:48.914Z,83.78
2024-03-12T09:16:15.679Z,84.45
2024-03-12T09:18:45.341Z,70.03
2024-03-12T09:21:13.899Z,74.10
2024-03-12T09:23:48.176Z,68.15
2024-03-12T09:26:23.843Z,70.88
2024-03-12T09:28:50.943Z,68.95
2024-03-12T09:31:17.693Z,68.78
2024-03-12T09:33:46.067Z,72.35
2024-03-12T09:36:15.587Z,55.03
2024-03-12T09:38:44.839Z,63.25
2024-03-12T09:41:13.420Z,57.90
2024-03-12T09:43:40.711Z,59.97
2024-03-12T09:46:07.701Z,55.47
2024-03-12T09:48:35.003Z,51.15
2024-03-12T09:51:01.789Z,50.97
2024-03-12T09:53:28.400Z,40.45
2024-03-12T09:55:56.129Z,42.05
2024-03-12T09:58:22.859Z,37.33
2024-03-12T10:00:49.570Z,37.83
2024-03-12T10:03:19.651Z,33.38
2024-03-12T10:05:47.293Z,33.80
2024-03-12T10:08:16.086Z,31.13
2024-03-12T10:13:17.262Z,22.40
2024-03-12T10:15:57.984Z,28.67
2024-03-12T10:18:30.882Z,28.35
2024-03-12T10:20:58.785Z,24.15
2024-03-12T10:23:27.410Z,24.85
2024-03-12T10:26:10.569Z,22.08
2024-03-12T10:28:40.428Z,22.92
2024-03-12T10:31:13.065Z,23.17
2024-03-12T10:33:43.422Z,18.73
2024-03-12T10:36:13.107Z,25.67
2024-03-12T10:38:43.891Z,25.85
2024-03-12T10:41:19.202Z,25.15
2024-03-12T10:43:51.265Z,21.73
2024-03-12T10:46:18.906Z,17.13
2024-03-12T10:48:48.090Z,20.85
2024-03-12T10:51:16.482Z,19.92
2024-03-12T10:53:44.274Z,21.20
2024-03-12T10:56:15.193Z,23.10
2024-03-12T10:58:48.326Z,25.83
2024-03-12T11:01:17.917Z,23.00
2024-03-12T11:03:45.481Z,25.05
2024-03-12T11:06:14.801Z,22.60
2024-03-12T11:08:44.175Z,25.80
2024-03-12T11:11:10.883Z,26.95
2024-03-12T11:13:37.482Z,21.77
2024-03-12T11:16:17.284Z,28.40
2024-03-12T11:18:45.533Z,22.80
2024-03-12T11:21:12.689Z,24.13
2024-03-12T11:23:39.124Z,26.80
2024-03-12T11:26:15.349Z,24.88
2024-03-12T11:28:51.814Z,23.42
2024-03-12T11:31:19.041Z,24.02
2024-03-12T11:33:53.836Z,21.48
2024-03-12T11:36:40.877Z,21.52
2024-03-12T11:39:16.655Z,26.58
2024-03-12T11:42:02.164Z,22.38
2024-03-12T11:44:49.261Z,20.60
2024-03-12T11:47:36.272Z,20.08
2024-03-12T11:50:26.028Z,24.15
2024-03-12T11:52:52.611Z,22.83
2024-03-12T11:55:53.593Z,28.02
2024-03-12T11:58:21.483Z,24.60
2024-03-12T12:00:51.835Z,28.25
2024-03-12T12:03:18.423Z,25.40
2024-03-12T12:05:48.455Z,27.08
2024-03-12T12:08:17.726Z,26.65
2024-03-12T12:10:56.353Z,29.73
2024-03-12T12:13:24.192Z,26.05
2024-03-12T12:16:02.085Z,29.98
2024-03-12T12:18:32.798Z,33.47
2024-03-12T12:21:03.745Z,31.20
2024-03-12T12:23:30.811Z,38.15
2024-03-12T12:25:58.267Z,40.63
2024-03-12T12:28:25.683Z,40.35
2024-03-12T12:31:00.958Z,37.47
2024-03-12T12:33:29.373Z,47.20
2024-03-12T12:35:57.197Z,45.92
2024-03-12T12:38:24.709Z,41.33
2024-03-12T12:40:52.070Z,42.97
2024-03-12T12:43:18.617Z,50.55
2024-03-12T12:45:48.161Z,51.67
2024-03-12T12:48:15.858Z,47.30
2024-03-12T12:50:42.830Z,45.78
2024-03-12T12:53:13.163Z,39.33
2024-03-12T12:55:39.660Z,48.00
2024-03-12T12:58:08.008Z,35.78
2024-03-12T13:00:39.390Z,37.78
2024-03-12T13:03:17.181Z,36.83
2024-03-12T13:05:45.468Z,34.85
2024-03-12T13:08:30.516Z,42.35
2024-03-12T13:11:09.948Z,36.97
2024-03-12T13:13:38.269Z,31.85
2024-03-12T13:16:14.398Z,43.70
2024-03-12T13:18:46.216Z,29.05
2024-03-12T13:21:21.302Z,34.00
2024-03-12T13:23:48.434Z,36.97
2024-03-12T13:26:15.650Z,40.38
2024-03-12T13:28:42.584Z,35.00
2024-03-12T13:31:09.563Z,51.05
2024-03-12T13:33:36.124Z,38.95
2024-03-12T13:36:02.876Z,34.38
2024-03-12T13:38:29.398Z,35.78
2024-03-12T13:40:56.937Z,38.05
2024-03-12T13:43:32.829Z,41.85
2024-03-12T13:45:59.475Z,40.08
2024-03-12T13:48:26.891Z,41.13
2024-03-12T13:51:11.607Z,33.95
2024-03-12T13:53:41.762Z,39.25
2024-03-12T13:56:11.069Z,36.33
2024-03-12T13:58:42.915Z,37.40
2024-03-12T14:01:13.785Z,34.53
2024-03-12T14:06:10.199Z,27.95
2024-03-12T14:11:03.960Z,30.65
2024-03-12T14:13:32.680Z,33.47
2024-03-12T14:18:27.605Z,27.17
2024-03-12T14:20:55.834Z,32.90
2024-03-12T14:23:22.673Z,28.05
2024-03-12T14:25:50.154Z,34.28
2024-03-12T14:28:17.103Z,36.97
2024-03-12T14:30:45.635Z,35.97
2024-03-12T14:33:12.794Z,29.05
2024-03-12T14:35:39.362Z,24.02
2024-03-12T14:38:05.779Z,22.73
2024-03-12T14:40:32.323Z,25.95
2024-03-12T14:42:59.137Z,22.30
2024-03-12T14:45:25.688Z,20.98
2024-03-12T14:47:52.518Z,22.17
2024-03-12T14:50:19.429Z,22.58
2024-03-12T14:52:48.740Z,26.08
2024-03-12T14:55:15.304Z,20.77
2024-03-12T14:57:42.051Z,22.42
2024-03-12T15:00:10.705Z,23.23
2024-03-12T15:02:37.655Z,24.58
2024-03-12T15:05:11.675Z,22.23
2024-03-12T15:07:44.388Z,22.38
2024-03-12T15:10:11.511Z,23.15
2024-03-12T15:12:40.624Z,26.45
2024-03-12T15:15:15.893Z,28.70
2024-03-12T15:17:43.587Z,28.48
2024-03-12T15:20:11.363Z,25.70
2024-03-12T15:22:38.477Z,29.02
2024-03-12T15:25:07.616Z,25.88
2024-03-12T15:27:35.487Z,27.90
2024-03-12T15:30:02.323Z,28.03
2024-03-12T15:32:29.096Z,31.58
2024-03-12T15:34:57.616Z,30.85
2024-03-12T15:37:24.437Z,32.83
2024-03-12T15:39:51.063Z,29.63
2024-03-12T15:42:18.248Z,27.98
2024-03-12T15:44:44.686Z,32.25
2024-03-12T15:47:11.358Z,29.50
2024-03-12T15:49:40.327Z,28.42
2024-03-12T15:52:07.095Z,34.30
2024-03-12T15:54:33.644Z,29.40
2024-03-12T15:57:00.133Z,26.65
2024-03-12T15:59:27.177Z,29.35
2024-03-12T16:01:54.849Z,31.52
2024-03-12T16:04:21.612Z,26.48
2024-03-12T16:06:48.177Z,31.52
2024-03-12T16:09:17.848Z,29.65
2024-03-12T16:11:44.708Z,29.88
2024-03-12T16:14:13.128Z,36.35
2024-03-12T16:16:40.638Z,30.17
2024-03-12T16:19:07.988Z,33.95
2024-03-12T16:21:35.326Z,29.10
2024-03-12T16:24:02.372Z,30.27
2024-03-12T16:26:29.515Z,31.90
2024-03-12T16:28:56.002Z,33.05
2024-03-12T16:31:22.566Z,37.70
2024-03-12T16:33:49.615Z,32.50
2024-03-12T16:36:19.305Z,30.60
2024-03-12T16:38:47.578Z,29.88
2024-03-12T16:41:15.710Z,37.88
2024-03-12T16:43:42.962Z,33.22
2024-03-12T16:46:10.753Z,34.75
2024-03-12T16:48:40.927Z,36.45
2024-03-12T16:51:08.350Z,34.25
2024-03-12T16:53:35.007Z,33.80
2024-03-12T16:56:02.076Z,40.15
2024-03-12T16:58:30.147Z,34.97
2024-03-12T17:00:59.258Z,37.33
2024-03-12T17:03:26.928Z,42.83
2024-03-12T17:05:55.755Z,33.95
2024-03-12T17:10:49.551Z,43.35
2024-03-12T17:13:17.993Z,36.72
2024-03-12T17:15:46.720Z,32.33
2024-03-12T17:18:25.269Z,34.05
2024-03-12T17:20:53.018Z,30.50
2024-03-12T17:23:19.588Z,38.38
2024-03-12T17:25:46.275Z,40.65
2024-03-12T17:28:13.218Z,39.28
2024-03-12T17:30:40.143Z,38.65
2024-03-12T17:33:08.262Z,44.25
2024-03-12T17:35:34.950Z,42.42
2024-03-12T17:38:02.527Z,38.88
2024-03-12T17:40:29.945Z,42.90
2024-03-12T17:42:56.674Z,33.38
2024-03-12T17:45:24.832Z,42.83
2024-03-12T17:47:52.824Z,33.45
2024-03-12T17:50:24.224Z,38.33
2024-03-12T17:52:52.528Z,34.75
2024-03-12T17:55:20.365Z,32.58
2024-03-12T17:57:47.502Z,38.27
2024-03-12T18:00:15.573Z,37.63
2024-03-12T18:02:44.970Z,37.35
2024-03-12T18:05:12.815Z,39.88
2024-03-12T18:07:43.760Z,60.13
2024-03-12T18:10:20.605Z,46.05
2024-03-12T18:12:48.174Z,44.65
2024-03-12T18:15:19.030Z,48.17
2024-03-12T18:17:46.233Z,49.20
2024-03-12T18:20:14.088Z,44.40
2024-03-12T18:22:41.097Z,54.20
2024-03-12T18:25:12.465Z,42.10
2024-03-12T18:27:43.924Z,43.13
2024-03-12T18:30:11.366Z,42.28
2024-03-12T18:32:41.393Z,39.42
2024-03-12T18:35:08.970Z,33.55
2024-03-12T18:37:39.560Z,37.65
2024-03-12T18:40:12.633Z,34.70
2024-03-12T18:42:40.677Z,42.72
2024-03-12T18:45:08.123Z,37.53
2024-03-12T18:47:35.258Z,36.20
2024-03-12T18:50:02.096Z,38.13
2024-03-12T18:52:28.954Z,44.30
2024-03-12T18:54:55.802Z,41.53
2024-03-12T18:57:22.559Z,41.20
2024-03-12T18:59:51.073Z,41.00
2024-03-12T19:02:27.245Z,33.92
2024-03-12T19:04:59.473Z,37.00
2024-03-12T19:07:27.226Z,36.28
2024-03-12T19:09:54.155Z,32.83
2024-03-12T19:12:20.859Z,35.35
2024-03-12T19:14:47.764Z,38.22
2024-03-12T19:17:16.223Z,37.85
2024-03-12T19:19:42.932Z,38.25
2024-03-12T19:22:11.694Z,34.40
2024-03-12T19:24:38.812Z,35.30
2024-03-12T19:27:07.539Z,37.42
2024-03-12T19:29:36.397Z,39.97
2024-03-12T19:32:04.924Z,34.58
2024-03-12T19:34:33.956Z,33.38
2024-03-12T19:37:02.781Z,38.28
2024-03-12T19:39:30.917Z,31.42
2024-03-12T19:41:57.769Z,33.78
2024-03-12T19:44:24.335Z,33.00
2024-03-12T19:46:51.131Z,37.03
2024-03-12T19:49:17.923Z,34.10
2024-03-12T19:51:44.634Z,32.08
2024-03-12T19:54:16.888Z,34.30
2024-03-12T19:56:43.342Z,32.38
2024-03-12T19:59:10.378Z,38.80
2024-03-12T20:01:38.884Z,36.00
2024-03-12T20:04:05.565Z,41.58
2024-03-12T20:06:33.267Z,41.40
2024-03-12T20:09:01.431Z,42.30
2024-03-12T20:11:28.013Z,40.72
2024-03-12T20:13:56.190Z,50.15
2024-03-12T20:16:22.869Z,47.58
2024-03-12T20:18:50.241Z,43.45
2024-03-12T20:21:17.968Z,44.20
2024-03-12T20:23:44.656Z,44.53
2024-03-12T20:26:11.122Z,50.58
2024-03-12T20:28:37.712Z,48.45
2024-03-12T20:31:06.895Z,48.63
2024-03-12T20:33:33.645Z,54.13
2024-03-12T20:36:02.360Z,57.70
2024-03-12T20:38:30.004Z,51.45
2024-03-12T20:40:56.510Z,46.15
2024-03-12T20:43:23.058Z,54.17
2024-03-12T20:45:50.350Z,49.03
2024-03-12T20:48:16.986Z,52.35
2024-03-12T20:50:44.315Z,53.45
2024-03-12T20:53:13.758Z,48.47
2024-03-12T20:55:40.530Z,48.13
2024-03-12T20:58:07.130Z,47.15
2024-03-12T21:00:34.517Z,50.88
2024-03-12T21:03:01.194Z,45.28
2024-03-12T21:05:28.398Z,48.00
2024-03-12T21:07:54.936Z,43.47
2024-03-12T21:10:22.904Z,44.28
2024-03-12T21:12:51.734Z,45.17
2024-03-12T21:15:19.171Z,49.78
2024-03-12T21:17:46.384Z,47.03
2024-03-12T21:20:34.299Z,49.33
2024-03-12T21:23:01.183Z,52.73
2024-03-12T21:25:27.870Z,48.33
2024-03-12T21:27:54.527Z,48.03
2024-03-12T21:30:22.997Z,45.97
2024-03-12T21:32:50.599Z,48.53
2024-03-12T21:35:17.217Z,44.08
2024-03-12T21:37:43.715Z,42.28
2024-03-12T21:40:12.444Z,43.15
2024-03-12T21:42:39.914Z,46.47
2024-03-12T21:45:13.449Z,46.03
2024-03-12T21:47:41.079Z,45.95
2024-03-12T21:50:15.031Z,46.25
2024-03-12T21:52:42.209Z,43.45
2024-03-12T21:55:11.375Z,49.42
2024-03-12T21:57:39.499Z,40.58
2024-03-12T22:00:11.870Z,42.07
2024-03-12T22:02:39.247Z,45.33
2024-03-12T22:05:08.715Z,43.50
2024-03-12T22:07:38.256Z,47.42
2024-03-12T22:10:06.104Z,50.10
2024-03-12T22:12:32.620Z,44.60
2024-03-12T22:14:59.098Z,44.67
2024-03-12T22:17:25.669Z,47.63
2024-03-12T22:19:52.124Z,51.60
2024-03-12T22:22:18.655Z,48.40
2024-03-12T22:24:45.227Z,50.80
2024-03-12T22:27:11.695Z,53.90
2024-03-12T22:29:39.819Z,61.95
2024-03-12T22:32:09.479Z,55.70
2024-03-12T22:34:36.103Z,52.22
2024-03-12T22:37:02.646Z,49.90
2024-03-12T22:39:29.421Z,51.15
2024-03-12T22:41:56.581Z,49.58
2024-03-12T22:44:23.214Z,49.33
2024-03-12T22:46:50.541Z,51.42
2024-03-12T22:49:17.145Z,49.20
2024-03-12T22:51:44.229Z,46.03
2024-03-12T22:54:11.304Z,47.28
2024-03-12T22:56:38.793Z,51.42
2024-03-12T22:59:05.521Z,46.70
2024-03-12T23:01:32.433Z,47.33
2024-03-12T23:03:59.945Z,48.22
2024-03-12T23:06:26.624Z,50.85
2024-03-12T23:08:53.461Z,44.97
2024-03-12T23:11:22.459Z,46.30
2024-03-12T23:13:49.068Z,46.92
2024-03-12T23:16:16.229Z,50.40
2024-03-12T23:18:43.176Z,47.25
2024-03-12T23:21:11.426Z,51.85
2024-03-12T23:23:38.854Z,49.88
2024-03-12T23:26:05.693Z,50.83
2024-03-12T23:28:32.225Z,45.17
2024-03-12T23:30:58.921Z,53.03
2024-03-12T23:33:26.219Z,52.53
2024-03-12T23:35:52.865Z,56.35
2024-03-12T23:38:20.056Z,45.42
2024-03-12T23:40:46.749Z,48.67
2024-03-12T23:43:13.315Z,48.97
2024-03-12T23:45:39.856Z,58.15
2024-03-12T23:48:08.615Z,50.67
2024-03-12T23:50:36.934Z,51.80
2024-03-12T23:53:06.465Z,53.38
2024-03-12T23:55:33.037Z,45.75
2024-03-12T23:58:00.749Z,45.00
